Latest Weather Observations for Charlton

IDV60801

Issued at 10:34 am EST Saturday 22 July 2017 (issued every 30 minutes, with the page automatically refreshed every 10 minutes)

About weather observations | Map of weather stations | Latest weather observations for VIC | Other Formats
Station Details ID: 080128 Name: CHARLTON Lat: -36.28 Lon: 143.33 Height: 131.7 m
Data from the previous 72 hours. | See also: Recent months at Charlton
Date/Time
EST
Temp
°C
App
Temp
°C
Dew
Point
°C
Rel
Hum
%
Delta-T
°C
Wind Press
QNH
hPa
Press
MSL
hPa
Rain since
9am
mm
Dir  Spd
km/h
Gust
km/h
Spd
kts
Gust
kts
22/10:30am 8.3 3.5 2.5 67 2.4 NNE 17 24 9 13 1021.1 1021.3 0.0
22/10:00am 7.0 3.2 1.9 70 2.1 NNE 11 17 6 9 1021.9 1022.2 0.0
22/09:30am 5.9 2.0 1.1 71 1.9 NNE 11 19 6 10 1022.0 1022.3 0.0
22/09:00am 4.5 0.9 0.3 74 1.6 NNE 9 13 5 7 1022.2 1022.5 0.0
22/08:30am 3.5 0.3 0.7 82 1.1 NE 7 11 4 6 1022.4 1022.7 0.0
22/08:00am 1.5 -1.7 0.6 94 0.3 NNE 7 13 4 7 1022.1 1022.4 0.0
22/07:30am 0.4 -2.8 -0.7 92 0.4 NE 6 9 3 5 1022.3 1022.6 0.0
22/07:00am 1.2 -2.0 -0.4 89 0.6 N 6 7 3 4 1022.1 1022.4 0.0
22/06:30am 2.2 -1.4 0.3 87 0.7 NNE 9 15 5 8 1021.3 1021.5 0.0
22/06:00am 2.7 -1.6 0.8 87 0.7 NNE 13 20 7 11 1020.7 1020.9 0.0
22/05:30am 2.7 -1.3 0.8 87 0.7 NE 11 17 6 9 1020.9 1021.1 0.0
22/05:00am 2.9 -1.4 1.1 88 0.7 NNE 13 19 7 10 1020.8 1021.0 0.0
22/04:30am 2.9 -1.4 1.1 88 0.7 NNE 13 17 7 9 1021.0 1021.2 0.0
22/04:00am 2.4 -1.1 1.4 93 0.4 NNE 9 11 5 6 1020.9 1021.1 0.0
22/03:30am 2.3 -0.9 0.8 90 0.6 NE 7 9 4 5 1020.9 1021.1 0.0
22/03:00am 2.6 -0.9 1.1 90 0.6 NE 9 15 5 8 1021.0 1021.2 0.0
22/02:30am 2.4 -1.1 1.1 91 0.5 NE 9 11 5 6 1021.0 1021.2 0.0
22/02:00am 2.6 -0.6 1.0 89 0.6 NE 7 11 4 6 1021.2 1021.4 0.0
22/01:30am 3.2 -0.6 1.6 89 0.6 NE 11 13 6 7 1021.5 1021.7 0.0
22/01:00am 2.6 -0.7 2.3 98 0.1 NNE 9 11 5 6 1021.8 1022.1 0.0
22/12:30am 2.0 -1.0 1.9 99 0.0 NNE 7 9 4 5 1022.0 1022.3 0.0
22/12:00am 1.0 -2.0 0.9 99 0.0 NE 6 7 3 4 1022.4 1022.7 0.0
 
Date/Time
EST
Temp
°C
App
Temp
°C
Dew
Point
°C
Rel
Hum
%
Delta-T
°C
Wind Press
QNH
hPa
Press
MSL
hPa
Rain since
9am
mm
Dir  Spd
km/h
Gust
km/h
Spd
kts
Gust
kts
21/11:30pm 1.1 -2.1 1.0 99 0.0 NE 7 9 4 5 1022.7 1023.0 0.0
21/11:00pm 1.6 -1.5 1.5 99 0.0 NNE 7 9 4 5 1022.9 1023.2 0.0
21/10:30pm 1.3 -1.6 1.2 99 0.0 NNE 6 9 3 5 1023.0 1023.3 0.0
21/10:00pm 1.2 -1.8 0.6 96 0.2 NE 6 7 3 4 1023.3 1023.6 0.0
21/09:30pm 2.0 -0.9 1.4 96 0.2 NNE 6 7 3 4 1023.3 1023.6 0.0
21/09:00pm 2.1 -0.8 1.5 96 0.2 N 6 9 3 5 1023.2 1023.5 0.0
21/08:30pm 2.9 0.1 2.3 96 0.2 N 6 7 3 4 1023.0 1023.3 0.0
21/08:00pm 3.1 0.3 2.2 94 0.4 NNE 6 7 3 4 1022.8 1023.1 0.0
21/07:30pm 3.9 1.2 2.7 92 0.5 N 6 7 3 4 1022.6 1022.9 0.0
21/07:00pm 4.9 2.3 3.4 90 0.6 N 6 7 3 4 1022.6 1022.9 0.0
21/06:30pm 5.7 3.1 3.4 85 1.0 N 6 7 3 4 1022.3 1022.6 0.0
21/06:00pm 6.9 4.3 3.3 78 1.5 N 6 7 3 4 1022.2 1022.5 0.0
21/05:30pm 9.2 6.6 3.2 66 2.6 N 6 9 3 5 1021.9 1022.2 0.0
21/05:00pm 11.2 8.4 3.0 57 3.6 N 7 11 4 6 1021.7 1021.9 0.0
21/04:30pm 11.9 8.7 3.2 55 3.9 N 9 15 5 8 1021.5 1021.7 0.0
21/04:00pm 12.7 9.9 3.4 53 4.2 N 7 15 4 8 1021.6 1021.8 0.0
21/03:30pm 12.7 9.5 2.8 51 4.4 N 9 13 5 7 1021.7 1021.9 0.0
21/03:00pm 13.1 10.5 4.0 54 4.1 NNW 7 13 4 7 1021.7 1021.9 0.0
21/02:30pm 12.7 9.1 2.8 51 4.4 NNW 11 19 6 10 1022.3 1022.6 0.0
21/02:00pm 12.8 9.4 4.0 55 4.0 NNW 11 20 6 11 1022.5 1022.8 0.0
21/01:30pm 12.9 9.9 4.3 56 3.9 NNW 9 15 5 8 1023.1 1023.4 0.0
21/01:00pm 12.6 9.2 4.1 56 3.8 NNW 11 17 6 9 1023.6 1023.9 0.0
21/12:30pm 12.2 9.3 4.4 59 3.6 N 9 17 5 9 1023.9 1024.2 0.0
21/12:00pm 11.5 8.4 3.8 59 3.4 NW 9 17 5 9 1024.5 1024.8 0.0
21/11:30am 12.0 9.2 5.2 63 3.2 NNW 9 13 5 7 1025.1 1025.4 0.0
21/11:00am 10.8 8.1 3.8 62 3.1 NNW 7 11 4 6 1025.1 1025.4 0.0
21/10:30am 10.0 7.7 4.6 69 2.4 ENE 6 7 3 4 1024.9 1025.2 0.0
21/10:00am 8.0 5.8 6.0 87 0.9 E 7 11 4 6 1024.5 1024.8 0.0
21/09:30am 5.5 3.7 5.5 100 0.0 SE 4 6 2 3 1024.3 1024.6 0.0
21/09:00am 2.5 0.9 2.5 100 0.0 CALM 0 0 0 0 1024.2 1024.5 0.0
21/08:30am -0.9 -3.0 -1.0 99 0.0 CALM 0 0 0 0 1023.9 1024.2 0.0
21/08:00am -2.5 -4.8 -2.6 99 -0.1 CALM 0 0 0 0 1024.0 1024.3 0.0
21/07:30am -2.3 -4.6 -2.4 99 -0.1 CALM 0 0 0 0 1024.1 1024.4 0.0
21/07:00am -2.0 -5.0 -2.1 99 -0.1 SW 4 6 2 3 1024.0 1024.3 0.0
21/06:30am -2.6 -5.7 -2.7 99 -0.1 S 4 7 2 4 1023.6 1023.9 0.0
21/06:00am -2.5 -4.8 -2.6 99 -0.1 CALM 0 0 0 0 1023.1 1023.4 0.0
21/05:30am -1.7 -3.9 -1.8 99 0.0 CALM 0 0 0 0 1022.7 1023.0 0.0
21/05:00am -1.5 -3.7 -1.6 99 0.0 CALM 0 0 0 0 1022.4 1022.7 0.0
21/04:30am -2.3 -4.6 -2.4 99 -0.1 CALM 0 0 0 0 1022.2 1022.5 0.0
21/04:00am -1.7 -3.9 -1.8 99 0.0 CALM 0 4 0 2 1022.4 1022.7 0.0
21/03:30am -1.7 -4.3 -1.8 99 0.0 S 2 6 1 3 1022.6 1022.9 0.0
21/03:00am -1.1 -3.6 -1.2 99 0.0 SSW 2 6 1 3 1022.8 1023.1 0.0
21/02:30am -1.2 -3.4 -1.3 99 0.0 CALM 0 0 0 0 1022.9 1023.2 0.0
21/02:00am -0.6 -2.7 -0.7 99 0.0 CALM 0 0 0 0 1022.9 1023.2 0.0
21/01:30am -0.8 -2.9 -0.9 99 0.0 CALM 0 0 0 0 1023.1 1023.4 0.0
21/01:00am -0.6 -3.8 -0.7 99 0.0 SSE 6 9 3 5 1023.2 1023.5 0.0
21/12:30am -0.8 -2.9 -0.9 99 0.0 CALM 0 0 0 0 1023.2 1023.5 0.0
21/12:00am 0.7 -1.2 0.6 99 0.0 CALM 0 0 0 0 1023.3 1023.6 0.0
 
Date/Time
EST
Temp
°C
App
Temp
°C
Dew
Point
°C
Rel
Hum
%
Delta-T
°C
Wind Press
QNH
hPa
Press
MSL
hPa
Rain since
9am
mm
Dir  Spd
km/h
Gust
km/h
Spd
kts
Gust
kts
20/11:30pm 0.8 -1.1 0.7 99 0.0 CALM 0 0 0 0 1023.2 1023.5 0.0
20/11:00pm 0.9 -1.0 0.8 99 0.0 CALM 0 0 0 0 1023.2 1023.5 0.0
20/10:30pm 1.6 -0.9 1.5 99 0.0 WSW 4 7 2 4 1023.1 1023.4 0.0
20/10:00pm 1.4 -0.4 1.3 99 0.0 CALM 0 0 0 0 1022.8 1023.1 0.0
20/09:30pm 2.4 0.8 2.3 99 0.0 CALM 0 0 0 0 1022.7 1023.0 0.0
20/09:00pm 2.7 1.0 2.1 96 0.2 CALM 0 0 0 0 1022.7 1023.0 0.0
20/08:30pm 3.3 1.7 2.4 94 0.4 CALM 0 0 0 0 1022.8 1023.1 0.0
20/08:00pm 4.6 2.0 3.4 92 0.5 SSW 6 7 3 4 1022.5 1022.8 0.0
20/07:30pm 5.3 3.9 3.5 88 0.8 CALM 0 6 0 3 1022.5 1022.8 0.0
20/07:00pm 5.2 2.8 2.4 82 1.1 S 4 7 2 4 1022.3 1022.6 0.0
20/06:30pm 7.1 4.6 3.5 78 1.5 S 6 9 3 5 1021.4 1021.6 0.0
20/06:00pm 8.7 5.7 3.9 72 2.1 SSW 9 15 5 8 1021.1 1021.3 0.0
20/05:30pm 9.3 5.9 3.9 69 2.4 SSW 11 20 6 11 1020.8 1021.0 0.0
20/05:00pm 10.0 6.2 3.7 65 2.8 SSW 13 20 7 11 1020.4 1020.6 0.0
20/04:30pm 10.6 6.8 4.1 64 2.9 SSW 13 22 7 12 1020.5 1020.7 0.0
20/04:00pm 11.6 7.5 4.3 61 3.3 SSW 15 26 8 14 1020.6 1020.8 0.0
20/03:30pm 12.6 8.4 3.8 55 4.0 SSW 15 24 8 13 1020.3 1020.5 0.0
20/03:00pm 11.3 7.3 3.1 57 3.6 SSW 13 24 7 13 1020.3 1020.5 0.0
20/02:30pm 11.5 7.2 3.0 56 3.7 SSW 15 22 8 12 1020.3 1020.5 0.0
20/02:00pm 12.5 8.0 4.2 57 3.8 SSW 17 26 9 14 1019.9 1020.1 0.0
20/01:30pm 12.7 8.3 4.7 58 3.7 SSW 17 30 9 16 1020.0 1020.2 0.0
20/01:00pm 11.8 7.6 5.9 67 2.8 SSW 17 26 9 14 1020.1 1020.3 0.0
20/12:30pm 12.0 8.7 6.5 69 2.6 SW 13 22 7 12 1020.3 1020.5 0.0
20/12:00pm 11.0 7.4 6.7 75 2.0 SSW 15 24 8 13 1020.7 1020.9 0.0
20/11:30am 10.8 7.2 6.9 77 1.9 SW 15 24 8 13 1021.0 1021.2 0.0
20/11:00am 10.3 7.2 7.4 82 1.4 WSW 13 24 7 13 1021.2 1021.4 0.0
20/10:30am 9.1 5.1 6.5 84 1.2 WSW 17 30 9 16 1021.4 1021.6 0.0
20/10:00am 7.9 3.4 6.2 89 0.8 W 19 32 10 17 1021.2 1021.4 0.0
20/09:30am 6.8 3.0 5.6 92 0.5 W 15 30 8 16 1021.1 1021.3 0.0
20/09:00am 5.6 1.7 5.3 98 0.1 W 15 24 8 13 1020.7 1020.9 0.2
20/08:30am 4.5 0.4 4.4 99 0.0 W 15 22 8 12 1020.4 1020.6 0.2
20/08:00am 3.3 -0.6 3.2 99 0.0 W 13 20 7 11 1020.1 1020.3 0.2
20/07:30am 2.9 -0.7 2.8 99 0.0 W 11 19 6 10 1020.1 1020.3 0.2
20/07:00am 2.6 -1.5 2.5 99 0.0 W 13 19 7 10 1019.8 1020.0 0.2
20/06:30am 3.0 -1.0 2.9 99 0.0 W 13 20 7 11 1019.7 1019.9 0.2
20/06:00am 2.9 -1.1 2.8 99 0.0 W 13 19 7 10 1019.6 1019.8 0.2
20/05:30am 3.6 -0.3 3.5 99 0.0 W 13 22 7 12 1019.7 1019.9 0.0
20/05:00am 3.4 -0.1 3.3 99 0.0 WSW 11 17 6 9 1019.8 1020.0 0.0
20/04:30am 3.1 -0.5 3.0 99 0.0 W 11 17 6 9 1020.0 1020.2 0.0
20/04:00am 2.8 -0.5 2.7 99 0.0 W 9 15 5 8 1020.0 1020.2 0.0
20/03:30am 3.1 -0.1 2.8 98 0.1 W 9 13 5 7 1020.1 1020.3 0.0
20/03:00am 3.3 0.1 2.9 97 0.2 W 9 15 5 8 1020.2 1020.4 0.0
20/02:30am 3.6 0.4 3.0 96 0.2 W 9 13 5 7 1020.4 1020.6 0.0
20/02:00am 4.0 0.5 3.4 96 0.2 W 11 15 6 8 1020.3 1020.5 0.0
20/01:30am 4.2 0.7 3.3 94 0.4 WSW 11 20 6 11 1020.3 1020.5 0.0
20/01:00am 4.4 0.9 3.5 94 0.4 WSW 11 17 6 9 1020.7 1020.9 0.0
20/12:30am 4.6 1.2 3.9 95 0.3 WSW 11 13 6 7 1021.0 1021.2 0.0
20/12:00am 4.1 1.3 2.9 92 0.5 W 7 9 4 5 1021.2 1021.4 0.0
 
Date/Time
EST
Temp
°C
App
Temp
°C
Dew
Point
°C
Rel
Hum
%
Delta-T
°C
Wind Press
QNH
hPa
Press
MSL
hPa
Rain since
9am
mm
Dir  Spd
km/h
Gust
km/h
Spd
kts
Gust
kts
19/11:30pm 4.6 1.0 2.8 88 0.7 WSW 11 17 6 9 1020.9 1021.1 0.0
19/11:00pm 5.1 1.9 3.0 86 0.9 WSW 9 15 5 8 1021.0 1021.2 0.0
19/10:30pm 5.1 1.9 3.1 87 0.8 W 9 17 5 9 1021.1 1021.3 0.0
19/10:00pm 5.5 2.3 3.0 84 1.0 W 9 15 5 8 1021.1 1021.3 0.0
19/09:30pm 6.0 2.5 3.3 83 1.1 WSW 11 17 6 9 1021.2 1021.4 0.0
19/09:00pm 6.3 3.2 3.8 84 1.1 WSW 9 13 5 7 1021.1 1021.3 0.0
19/08:30pm 6.5 3.4 3.5 81 1.3 SW 9 13 5 7 1021.1 1021.3 0.0
19/08:00pm 7.8 4.9 4.4 79 1.5 SW 9 15 5 8 1021.1 1021.3 0.0
19/07:30pm 7.3 4.7 4.3 81 1.3 SW 7 15 4 8 1020.7 1020.9 0.0
19/07:00pm 8.8 5.1 4.2 73 2.0 SW 13 19 7 10 1019.9 1020.1 0.0
19/06:30pm 8.8 4.8 4.8 76 1.8 SSW 15 24 8 13 1019.5 1019.7 0.0
19/06:00pm 8.8 4.9 5.5 80 1.5 SSW 15 24 8 13 1019.2 1019.4 0.0
19/05:30pm 9.8 6.0 6.0 77 1.8 SSW 15 24 8 13 1019.0 1019.2 0.0
19/05:00pm 9.5 6.6 6.4 81 1.4 SSW 11 17 6 9 1018.7 1018.9 0.0
19/04:30pm 10.9 7.0 7.0 77 1.9 SSW 17 28 9 15 1018.4 1018.6 0.0
19/04:00pm 10.6 6.9 7.8 83 1.4 SW 17 26 9 14 1018.5 1018.7 0.0
19/03:30pm 12.3 8.2 6.1 66 2.9 SSW 17 32 9 17 1017.7 1018.0 0.0
19/03:00pm 12.0 8.2 7.7 75 2.1 SW 17 28 9 15 1017.4 1017.7 0.0
19/02:30pm 13.1 8.8 7.1 67 2.9 SW 19 32 10 17 1017.1 1017.4 0.0
19/02:00pm 12.6 8.0 6.4 66 3.0 SSW 20 39 11 21 1016.8 1017.1 0.0
19/01:30pm 12.7 8.3 6.7 67 2.9 SW 19 33 10 18 1016.5 1016.8 0.0
19/01:00pm 12.7 8.1 6.7 67 2.9 SW 20 39 11 21 1016.7 1017.0 0.0
19/12:30pm 12.9 7.7 7.1 68 2.8 SSW 24 39 13 21 1016.9 1017.2 0.0
19/12:00pm 12.9 8.7 8.4 74 2.2 SSW 20 33 11 18 1016.9 1017.2 0.0
19/11:30am 12.2 8.0 8.3 77 1.9 SSW 20 41 11 22 1016.5 1016.8 0.0
19/11:00am 11.6 8.1 8.8 83 1.4 SW 17 28 9 15 1016.3 1016.6 0.0

Other Formats:

Comma delimited format used in spreadsheet applications
http://www.bom.gov.au/fwo/IDV60801/IDV60801.94839.axf

JavaScript Object Notation format (JSON) in row-major order
http://www.bom.gov.au/fwo/IDV60801/IDV60801.94839.json